createdAt,value
2022-12-03T00:00:00.823Z,22.3
2022-12-03T00:01:17.109Z,24.3
2022-12-03T00:02:33.419Z,23.6
2022-12-03T00:05:06.002Z,24.6
2022-12-03T00:06:22.295Z,25.1
2022-12-03T00:07:38.586Z,22
2022-12-03T00:08:54.895Z,23.9
2022-12-03T00:10:11.175Z,24.8
2022-12-03T00:12:43.772Z,24.3
2022-12-03T00:14:00.060Z,23.1
2022-12-03T00:15:15.380Z,24.9
2022-12-03T00:16:31.665Z,24.2
2022-12-03T00:17:47.963Z,24.6
2022-12-03T00:20:20.554Z,22.1
2022-12-03T00:21:35.878Z,24.5
2022-12-03T00:22:51.189Z,23.7
2022-12-03T00:24:07.489Z,23.3
2022-12-03T00:25:23.768Z,24
2022-12-03T00:26:40.081Z,24.3
2022-12-03T00:27:56.368Z,24.6
2022-12-03T00:29:12.671Z,24.7
2022-12-03T00:30:28.962Z,22.8
2022-12-03T00:31:45.249Z,24.9
2022-12-03T00:33:01.554Z,23.3
2022-12-03T00:34:17.835Z,23.8
2022-12-03T00:35:33.152Z,25.3
2022-12-03T00:36:48.475Z,25.1
2022-12-03T00:38:04.757Z,26.1
2022-12-03T00:39:21.059Z,26.8
2022-12-03T00:40:37.352Z,26.1
2022-12-03T00:41:53.648Z,26.1
2022-12-03T00:43:09.945Z,25.8
2022-12-03T00:44:26.248Z,25.4
2022-12-03T00:45:42.548Z,25.1
2022-12-03T00:46:58.830Z,26.2
2022-12-03T00:48:15.129Z,26
2022-12-03T00:49:31.428Z,24.8
2022-12-03T00:50:47.725Z,26.2
2022-12-03T00:52:04.022Z,26.2
2022-12-03T00:53:19.322Z,25.8
2022-12-03T00:54:35.614Z,24.9
2022-12-03T00:55:51.918Z,24.5
2022-12-03T00:57:08.211Z,25
2022-12-03T00:58:24.510Z,24.8
2022-12-03T00:59:40.809Z,25.6
2022-12-03T01:00:57.084Z,24.8
2022-12-03T01:02:13.385Z,24.4
2022-12-03T01:03:29.692Z,25.1
2022-12-03T01:04:45.980Z,25.1
2022-12-03T01:06:02.279Z,25.1
2022-12-03T01:07:18.566Z,25.3
2022-12-03T01:08:34.862Z,25.3
2022-12-03T01:09:50.176Z,24.5
2022-12-03T01:11:06.467Z,26.1
2022-12-03T01:12:22.772Z,25.9
2022-12-03T01:13:39.063Z,25.5
2022-12-03T01:14:55.353Z,25.6
2022-12-03T01:16:11.657Z,25.5
2022-12-03T01:17:27.944Z,25
2022-12-03T01:18:44.249Z,24.8
2022-12-03T01:20:00.531Z,25.4
2022-12-03T01:21:16.832Z,23.6
2022-12-03T01:22:33.118Z,24.4
2022-12-03T01:23:49.411Z,23.7
2022-12-03T01:25:05.711Z,23.7
2022-12-03T01:26:21.026Z,23.8
2022-12-03T01:27:37.320Z,23.7
2022-12-03T01:28:53.628Z,24.7
2022-12-03T01:30:09.908Z,23
2022-12-03T01:31:26.212Z,24.4
2022-12-03T01:32:42.491Z,24.5
2022-12-03T01:33:58.790Z,23.9
2022-12-03T01:35:15.099Z,23.9
2022-12-03T01:36:31.394Z,24.1
2022-12-03T01:37:47.674Z,24.8
2022-12-03T01:39:03.980Z,25.2
2022-12-03T01:40:20.269Z,25.8
2022-12-03T01:41:36.568Z,26.3
2022-12-03T01:44:08.180Z,27
2022-12-03T01:45:24.477Z,26.8
2022-12-03T01:46:40.768Z,26.9
2022-12-03T01:47:57.056Z,26.7
2022-12-03T01:49:13.356Z,26.5
2022-12-03T01:50:29.652Z,26.1
2022-12-03T01:51:45.945Z,25.1
2022-12-03T01:53:02.231Z,26.4
2022-12-03T01:54:18.529Z,25.1
2022-12-03T01:55:34.838Z,25.8
2022-12-03T01:56:51.128Z,25.5
2022-12-03T01:58:07.428Z,25.1
2022-12-03T01:59:22.735Z,25.6
2022-12-03T02:00:39.016Z,25.1
2022-12-03T02:01:55.322Z,24.2
2022-12-03T02:03:11.611Z,23
2022-12-03T02:04:27.908Z,24.7
2022-12-03T02:05:44.194Z,24.7
2022-12-03T02:07:00.494Z,24.8
2022-12-03T02:08:16.804Z,24.2
2022-12-03T02:10:49.377Z,24
2022-12-03T02:12:05.680Z,23.4
2022-12-03T02:13:21.976Z,23.4
2022-12-03T02:14:38.269Z,23.5
2022-12-03T02:15:53.591Z,22.6
2022-12-03T02:17:09.869Z,23.2
2022-12-03T02:18:26.178Z,23.7
2022-12-03T02:19:42.468Z,23.2
2022-12-03T02:20:58.759Z,23.6
2022-12-03T02:22:15.066Z,23.8
2022-12-03T02:23:31.353Z,22.9
2022-12-03T02:24:47.649Z,24.8
2022-12-03T02:26:03.933Z,24.3
2022-12-03T02:27:20.228Z,23.5
2022-12-03T02:28:36.530Z,23.4
2022-12-03T02:29:52.825Z,24.2
2022-12-03T02:31:09.116Z,22.9
2022-12-03T02:32:24.435Z,22.6
2022-12-03T02:33:39.753Z,22
2022-12-03T02:34:56.055Z,23.2
2022-12-03T02:36:12.343Z,22.3
2022-12-03T02:37:28.636Z,23.2
2022-12-03T02:38:44.920Z,22.4
2022-12-03T02:40:01.226Z,22
2022-12-03T02:41:17.517Z,21
2022-12-03T02:42:33.824Z,21.7
2022-12-03T02:43:50.111Z,22.3
2022-12-03T02:45:06.404Z,22
2022-12-03T02:46:22.710Z,22.7
2022-12-03T02:47:39.004Z,23.2
2022-12-03T02:48:55.290Z,23.1
2022-12-03T02:50:10.605Z,22.3
2022-12-03T02:51:26.907Z,22.7
2022-12-03T02:52:43.196Z,21.8
2022-12-03T02:53:59.495Z,22.9
2022-12-03T02:55:15.787Z,22.4
2022-12-03T02:56:32.083Z,22.8
2022-12-03T02:57:48.361Z,23.4
2022-12-03T02:59:04.665Z,21.5
2022-12-03T03:00:20.952Z,22.6
2022-12-03T03:01:37.256Z,22.8
2022-12-03T03:02:53.557Z,24.2
2022-12-03T03:04:09.850Z,23.6
2022-12-03T03:05:26.137Z,23.7
2022-12-03T03:06:41.456Z,24.4
2022-12-03T03:07:57.740Z,23.8
2022-12-03T03:09:14.035Z,25.6
2022-12-03T03:10:30.336Z,24.5
2022-12-03T03:11:46.625Z,23.4
2022-12-03T03:13:02.922Z,25
2022-12-03T03:14:19.219Z,24.9
2022-12-03T03:15:35.507Z,24.8
2022-12-03T03:16:51.815Z,23.9
2022-12-03T03:18:08.105Z,24.8
2022-12-03T03:19:24.396Z,25.7
2022-12-03T03:20:40.000Z,26.3
2022-12-03T03:21:56.993Z,25.8
2022-12-03T03:23:12.300Z,25.5
2022-12-03T03:24:28.605Z,25.5
2022-12-03T03:25:44.898Z,25.8
2022-12-03T03:27:01.200Z,25.2
2022-12-03T03:28:17.489Z,25
2022-12-03T03:29:33.774Z,25.1
2022-12-03T03:30:50.078Z,25.9
2022-12-03T03:32:06.363Z,25.2
2022-12-03T03:33:22.673Z,26.3
2022-12-03T03:34:38.952Z,26
2022-12-03T03:35:55.249Z,24.9
2022-12-03T03:37:11.545Z,26.2
2022-12-03T03:38:27.843Z,25.6
2022-12-03T03:39:44.269Z,25.4
2022-12-03T03:41:00.569Z,25.5
2022-12-03T03:42:16.845Z,25.5
2022-12-03T03:43:33.143Z,26.4
2022-12-03T03:44:49.453Z,25.7
2022-12-03T03:46:05.728Z,25.5
2022-12-03T03:47:22.038Z,25.5
2022-12-03T03:48:38.323Z,24.6
2022-12-03T03:49:54.615Z,25
2022-12-03T03:51:10.921Z,24.4
2022-12-03T03:52:27.224Z,24.4
2022-12-03T03:53:43.516Z,25.6
2022-12-03T03:54:59.806Z,25.1
2022-12-03T03:56:15.123Z,24.8
2022-12-03T03:57:31.407Z,25.1
2022-12-03T03:58:47.711Z,24.5
2022-12-03T04:01:20.285Z,24.7
2022-12-03T04:02:36.592Z,22.6
2022-12-03T04:03:52.000Z,24.6
2022-12-03T04:05:09.187Z,23.5
2022-12-03T04:06:25.468Z,24.2
2022-12-03T04:07:41.776Z,23
2022-12-03T04:08:58.068Z,22.9
2022-12-03T04:10:14.371Z,24.1
2022-12-03T04:11:30.648Z,23.4
2022-12-03T04:12:45.974Z,23
2022-12-03T04:14:02.261Z,22.7
2022-12-03T04:15:18.565Z,23.5
2022-12-03T04:16:34.847Z,24
2022-12-03T04:17:51.149Z,23.7
2022-12-03T04:19:07.439Z,24
2022-12-03T04:20:23.732Z,24.3
2022-12-03T04:21:40.030Z,23.8
2022-12-03T04:22:56.320Z,24.4
2022-12-03T04:24:12.625Z,23.7
2022-12-03T04:25:28.912Z,24.6
2022-12-03T04:26:45.209Z,23.2
2022-12-03T04:28:01.507Z,24.3
2022-12-03T04:29:16.823Z,23.9
2022-12-03T04:30:33.113Z,23.2
2022-12-03T04:31:49.407Z,23.5
2022-12-03T04:33:05.709Z,24
2022-12-03T04:34:22.011Z,23.1
2022-12-03T04:35:38.300Z,22.3
2022-12-03T04:36:54.592Z,24.3
2022-12-03T04:38:10.889Z,23.4
2022-12-03T04:39:27.176Z,23.2
2022-12-03T04:40:43.480Z,24.4
2022-12-03T04:41:59.773Z,23.8
2022-12-03T04:43:16.069Z,22.9
2022-12-03T04:44:32.359Z,23.1
2022-12-03T04:45:47.670Z,23.2
2022-12-03T04:47:03.959Z,23.4
2022-12-03T04:48:20.259Z,22.4
2022-12-03T04:49:36.560Z,22.5
2022-12-03T04:50:52.844Z,23.2
2022-12-03T04:52:09.148Z,23.1
2022-12-03T04:53:25.448Z,22.7
2022-12-03T04:54:41.728Z,22.5
2022-12-03T04:55:58.025Z,22.1
2022-12-03T04:57:14.322Z,22.4
2022-12-03T04:58:30.624Z,23
2022-12-03T04:59:46.927Z,22.2
2022-12-03T05:01:03.208Z,22.2
2022-12-03T05:02:18.529Z,21.8
2022-12-03T05:03:34.821Z,22
2022-12-03T05:04:51.123Z,22.6
2022-12-03T05:06:07.409Z,22
2022-12-03T05:07:23.701Z,23
2022-12-03T05:08:39.994Z,22.2
2022-12-03T05:09:56.294Z,22.1
2022-12-03T05:11:12.589Z,22.1
2022-12-03T05:12:28.891Z,22
2022-12-03T05:13:45.184Z,21.3
2022-12-03T05:15:01.484Z,23.1
2022-12-03T05:16:17.774Z,22
2022-12-03T05:17:34.060Z,20.9
2022-12-03T05:18:49.378Z,22.6
2022-12-03T05:20:05.667Z,21
2022-12-03T05:21:21.961Z,22.1
2022-12-03T05:22:38.264Z,22
2022-12-03T05:23:54.546Z,21.9
2022-12-03T05:25:10.850Z,22
2022-12-03T05:26:27.138Z,22.2
2022-12-03T05:27:43.447Z,22.9
2022-12-03T05:30:16.022Z,22.1
2022-12-03T05:31:32.325Z,20.8
2022-12-03T05:32:48.613Z,21.7
2022-12-03T05:34:04.907Z,22
2022-12-03T05:35:20.237Z,21.4
2022-12-03T05:36:36.530Z,22.3
2022-12-03T05:37:52.808Z,21
2022-12-03T05:39:09.122Z,20.8
2022-12-03T05:40:25.410Z,20.4
2022-12-03T05:41:41.698Z,21.1
2022-12-03T05:42:58.009Z,21.1
2022-12-03T05:44:14.285Z,20.7
2022-12-03T05:45:30.587Z,20.4
2022-12-03T05:46:46.893Z,19.2
2022-12-03T05:48:03.169Z,19.6
2022-12-03T05:49:19.467Z,19.1
2022-12-03T05:50:35.777Z,20
2022-12-03T05:53:07.377Z,20.2
2022-12-03T05:54:23.678Z,20.7
2022-12-03T05:55:39.975Z,19.4
2022-12-03T05:56:56.258Z,20.8
2022-12-03T05:58:12.561Z,20.5
2022-12-03T05:59:28.847Z,19.3
2022-12-03T06:00:45.139Z,20.1
2022-12-03T06:02:01.446Z,20.1
2022-12-03T06:03:17.747Z,19.6
2022-12-03T06:04:34.037Z,20.1
2022-12-03T06:05:50.321Z,20.2
2022-12-03T06:07:06.623Z,21.3
2022-12-03T06:08:21.941Z,20.1
2022-12-03T06:09:38.239Z,20.2
2022-12-03T06:10:54.532Z,20.4
2022-12-03T06:12:10.823Z,20.1
2022-12-03T06:13:27.118Z,19.7
2022-12-03T06:14:43.401Z,18.7
2022-12-03T06:15:59.708Z,19
2022-12-03T06:17:15.994Z,19.4
2022-12-03T06:18:32.290Z,19.4
2022-12-03T06:19:48.593Z,20
2022-12-03T06:21:04.890Z,19.3
2022-12-03T06:22:21.125Z,17.6
2022-12-03T06:23:37.414Z,17.7
2022-12-03T06:24:52.724Z,19.7
2022-12-03T06:26:08.995Z,19.8
2022-12-03T06:27:25.230Z,18.8
2022-12-03T06:28:41.460Z,19.5
2022-12-03T06:29:57.764Z,19.3
2022-12-03T06:31:14.021Z,19.2
2022-12-03T06:32:30.267Z,18.6
2022-12-03T06:33:46.492Z,19.6
2022-12-03T06:35:02.733Z,19
2022-12-03T06:36:18.978Z,17.8
2022-12-03T06:37:35.221Z,18.9
2022-12-03T06:38:51.456Z,18.9
2022-12-03T06:40:07.711Z,18.3
2022-12-03T06:41:22.968Z,18.9
2022-12-03T06:42:39.209Z,18.8
2022-12-03T06:43:55.440Z,19.3
2022-12-03T06:45:11.000Z,17.6
2022-12-03T06:46:27.931Z,18.3
2022-12-03T06:47:44.161Z,17.7
2022-12-03T06:48:59.440Z,17.7
2022-12-03T06:50:15.662Z,17.9
2022-12-03T06:51:31.907Z,18
2022-12-03T06:52:48.150Z,18.2
2022-12-03T06:54:04.398Z,18.3
2022-12-03T06:55:20.631Z,18.3
2022-12-03T06:56:36.872Z,18.2
2022-12-03T06:57:53.123Z,18.2
2022-12-03T06:59:09.366Z,18.3
2022-12-03T07:00:25.592Z,17
2022-12-03T07:01:41.839Z,17.2
2022-12-03T07:02:58.089Z,17.1
2022-12-03T07:04:14.326Z,17.3
2022-12-03T07:05:29.583Z,18.6
2022-12-03T07:06:45.820Z,17.8
2022-12-03T07:08:02.052Z,17.8
2022-12-03T07:09:18.295Z,16.9
2022-12-03T07:10:34.546Z,17.7
2022-12-03T07:11:50.788Z,17.5
2022-12-03T07:13:07.018Z,17.4
2022-12-03T07:14:23.267Z,18.7
2022-12-03T07:15:39.514Z,18.5
2022-12-03T07:16:55.752Z,17.7
2022-12-03T07:18:12.000Z,18.4
2022-12-03T07:19:28.224Z,17.8
2022-12-03T07:20:44.471Z,18.5
2022-12-03T07:21:59.740Z,17.8
2022-12-03T07:23:15.972Z,18.5
2022-12-03T07:24:32.221Z,17.6
2022-12-03T07:25:48.458Z,18.7
2022-12-03T07:28:20.941Z,18.8
2022-12-03T07:29:37.184Z,19.3
2022-12-03T07:30:53.420Z,18.3
2022-12-03T07:32:09.655Z,18.5
2022-12-03T07:33:25.893Z,18.5
2022-12-03T07:34:42.131Z,19.2
2022-12-03T07:35:58.392Z,19.6
2022-12-03T07:37:14.622Z,18.2
2022-12-03T07:38:29.884Z,18.1
2022-12-03T07:39:46.121Z,19.6
2022-12-03T07:41:02.367Z,19.3
2022-12-03T07:42:18.613Z,19.7
2022-12-03T07:43:34.854Z,20
2022-12-03T07:44:51.078Z,19.4
2022-12-03T07:46:07.316Z,18.4
2022-12-03T07:47:23.558Z,19.5
2022-12-03T07:48:39.819Z,18
2022-12-03T07:49:56.044Z,18.3
2022-12-03T07:51:12.288Z,19.8
2022-12-03T07:52:28.524Z,19.1
2022-12-03T07:53:44.765Z,19.5
2022-12-03T07:55:00.030Z,18.9
2022-12-03T07:56:16.276Z,19.1
2022-12-03T07:57:32.522Z,18.9
2022-12-03T07:58:48.749Z,19.8
2022-12-03T08:00:04.999Z,19.6
2022-12-03T08:01:21.244Z,19.1
2022-12-03T08:02:37.473Z,18.4
2022-12-03T08:03:53.716Z,19.1
2022-12-03T08:05:09.960Z,19
2022-12-03T08:06:26.203Z,18.8
2022-12-03T08:07:42.443Z,18.5
2022-12-03T08:08:58.691Z,18.8
2022-12-03T08:10:14.924Z,18.6
2022-12-03T08:11:30.190Z,18
2022-12-03T08:12:46.430Z,17.2
2022-12-03T08:14:02.663Z,18.7
2022-12-03T08:15:18.909Z,19
2022-12-03T08:16:35.138Z,16.9
2022-12-03T08:19:07.629Z,18.2
2022-12-03T08:20:23.874Z,18.2
2022-12-03T08:21:40.105Z,18.1
2022-12-03T08:22:56.346Z,18.6
2022-12-03T08:24:12.579Z,18.4
2022-12-03T08:25:28.829Z,17.6
2022-12-03T08:26:45.068Z,17.9
2022-12-03T08:28:00.333Z,17.6
2022-12-03T08:29:16.578Z,18.4
2022-12-03T08:31:49.055Z,18.5
2022-12-03T08:33:05.290Z,18.9
2022-12-03T08:34:21.526Z,18.4
2022-12-03T08:35:37.778Z,18.6
2022-12-03T08:36:54.011Z,18.6
2022-12-03T08:38:10.250Z,18.8
2022-12-03T08:39:26.498Z,18
2022-12-03T08:40:42.736Z,18.5
2022-12-03T08:44:31.471Z,19.2
2022-12-03T08:45:46.737Z,19.3
2022-12-03T08:47:01.975Z,18.6
2022-12-03T08:48:18.217Z,19.1
2022-12-03T08:49:34.465Z,19.1
2022-12-03T08:50:50.706Z,19.6
2022-12-03T08:52:06.946Z,19.7
2022-12-03T08:53:23.186Z,19
2022-12-03T08:54:39.426Z,20.8
2022-12-03T08:57:11.909Z,19.4
2022-12-03T08:58:28.153Z,19.8
2022-12-03T08:59:44.395Z,20.7
2022-12-03T09:01:00.636Z,20
2022-12-03T09:02:16.881Z,19
2022-12-03T09:03:32.125Z,19.6
2022-12-03T09:04:48.377Z,20.4
2022-12-03T09:06:04.623Z,19.9
2022-12-03T09:07:20.847Z,21.2
2022-12-03T09:08:37.099Z,20.2
2022-12-03T09:09:53.340Z,19
2022-12-03T09:11:09.582Z,20.8
2022-12-03T09:12:25.818Z,20.8
2022-12-03T09:13:41.078Z,20.4
2022-12-03T09:14:57.454Z,19.5
2022-12-03T09:16:13.681Z,21.2
2022-12-03T09:17:29.935Z,19.5
2022-12-03T09:18:46.165Z,19.1
2022-12-03T09:20:02.412Z,19.1
2022-12-03T09:21:18.654Z,19.6
2022-12-03T09:22:34.898Z,19.4
2022-12-03T09:23:51.128Z,20.6
2022-12-03T09:25:07.380Z,19.1
2022-12-03T09:26:23.618Z,19.5
2022-12-03T09:27:39.846Z,20.4
2022-12-03T09:28:56.000Z,19.3
2022-12-03T09:31:28.585Z,19.4
2022-12-03T09:32:43.839Z,19.8
2022-12-03T09:34:00.072Z,20
2022-12-03T09:35:16.310Z,19.2
2022-12-03T09:36:32.556Z,19.7
2022-12-03T09:37:48.807Z,20.1
2022-12-03T09:39:05.034Z,20.2
2022-12-03T09:41:37.510Z,20.2
2022-12-03T09:42:53.753Z,20.9
2022-12-03T09:44:10.008Z,20.6
2022-12-03T09:45:26.244Z,20.8
2022-12-03T09:47:58.721Z,20.4
2022-12-03T09:49:13.984Z,21
2022-12-03T09:50:29.250Z,21
2022-12-03T09:51:45.491Z,21
2022-12-03T09:53:01.720Z,21.2
2022-12-03T09:54:17.959Z,21.5
2022-12-03T09:55:34.210Z,21.5
2022-12-03T09:56:50.452Z,21.7
2022-12-03T09:58:06.697Z,22.5
2022-12-03T09:59:22.934Z,21.7
2022-12-03T10:00:39.164Z,22.1
2022-12-03T10:01:55.405Z,21.8
2022-12-03T10:03:10.668Z,22.1
2022-12-03T10:04:27.045Z,21.7
2022-12-03T10:05:43.267Z,22.2
2022-12-03T10:06:59.508Z,22.6
2022-12-03T10:08:15.758Z,22.4
2022-12-03T10:09:31.998Z,22.8
2022-12-03T10:10:48.246Z,23.2
2022-12-03T10:12:04.491Z,21.7
2022-12-03T10:14:36.968Z,23.1
2022-12-03T10:15:53.204Z,22.9
2022-12-03T10:17:09.453Z,22.4
2022-12-03T10:18:25.684Z,22.7
2022-12-03T10:19:41.936Z,22.4
2022-12-03T10:20:57.191Z,22
2022-12-03T10:22:13.427Z,22.4
2022-12-03T10:23:29.670Z,22.7
2022-12-03T10:24:45.909Z,23.8
2022-12-03T10:26:02.140Z,23.5
2022-12-03T10:27:18.384Z,22.3
2022-12-03T10:28:34.635Z,23.1
2022-12-03T10:29:50.878Z,22.6
2022-12-03T10:31:07.111Z,21.8
2022-12-03T10:32:23.354Z,23.1
2022-12-03T10:33:39.598Z,22.7
2022-12-03T10:34:55.827Z,22.9
2022-12-03T10:36:12.075Z,22.7
2022-12-03T10:37:27.322Z,23.7
2022-12-03T10:39:59.824Z,22.2
2022-12-03T10:41:16.046Z,22.3
2022-12-03T10:42:32.300Z,21.2
2022-12-03T10:43:48.542Z,23.2
2022-12-03T10:45:04.000Z,22.6
2022-12-03T10:46:21.018Z,21.5
2022-12-03T10:47:37.257Z,22.8
2022-12-03T10:48:53.496Z,21.9
2022-12-03T10:50:09.741Z,22.6
2022-12-03T10:52:42.224Z,22.8
2022-12-03T10:53:57.470Z,22.3
2022-12-03T10:55:13.712Z,22.1
2022-12-03T10:56:29.962Z,22.2
2022-12-03T10:57:46.206Z,21.5
2022-12-03T10:59:02.455Z,20.6
2022-12-03T11:00:18.689Z,22.8
2022-12-03T11:01:34.923Z,21.6
2022-12-03T11:02:51.169Z,22
2022-12-03T11:04:07.411Z,22
2022-12-03T11:05:22.673Z,22.4
2022-12-03T11:06:38.919Z,22.3
2022-12-03T11:07:55.147Z,22.5
2022-12-03T11:09:11.395Z,22
2022-12-03T11:10:27.633Z,22.6
2022-12-03T11:11:43.875Z,23.2
2022-12-03T11:13:00.116Z,22.9
2022-12-03T11:14:16.361Z,22.6
2022-12-03T11:16:48.831Z,21.2
2022-12-03T11:18:05.090Z,21.5
2022-12-03T11:19:21.321Z,21.4
2022-12-03T11:20:37.568Z,21.7
2022-12-03T11:21:52.820Z,22.1
2022-12-03T11:23:09.058Z,21.3
2022-12-03T11:24:25.298Z,22.4
2022-12-03T11:25:41.538Z,21.9
2022-12-03T11:26:57.785Z,22.7
2022-12-03T11:28:14.036Z,21.6
2022-12-03T11:29:30.256Z,22.3
2022-12-03T11:30:46.505Z,21
2022-12-03T11:32:02.757Z,22
2022-12-03T11:33:18.989Z,21.4
2022-12-03T11:34:35.239Z,21.6
2022-12-03T11:35:51.461Z,21.9
2022-12-03T11:38:23.959Z,21.3
2022-12-03T11:39:39.201Z,22
2022-12-03T11:40:55.440Z,21.3
2022-12-03T11:43:27.925Z,21.6
2022-12-03T11:46:00.410Z,22
2022-12-03T11:47:15.666Z,21.5
2022-12-03T11:48:30.929Z,22.7
2022-12-03T11:49:47.175Z,21.1
2022-12-03T11:51:03.410Z,21.6
2022-12-03T11:52:19.662Z,22.5
2022-12-03T11:53:35.888Z,21.5
2022-12-03T11:54:52.142Z,22.6
2022-12-03T11:56:08.381Z,23.3
2022-12-03T11:57:24.610Z,21.8
2022-12-03T11:58:40.868Z,22.3
2022-12-03T11:59:57.094Z,23.4
2022-12-03T12:01:12.357Z,22.9
2022-12-03T12:02:27.626Z,22.7
2022-12-03T12:03:43.865Z,22.1
2022-12-03T12:05:00.094Z,23.1
2022-12-03T12:06:16.355Z,21.9
2022-12-03T12:07:32.576Z,21.9
2022-12-03T12:08:48.835Z,21
2022-12-03T12:10:05.068Z,22.9
2022-12-03T12:11:21.312Z,22.2
2022-12-03T12:12:37.546Z,21.9
2022-12-03T12:13:53.790Z,23.1
2022-12-03T12:15:10.029Z,22.7
2022-12-03T12:16:26.271Z,22.2
2022-12-03T12:17:42.520Z,22.8
2022-12-03T12:18:57.770Z,22.6
2022-12-03T12:20:14.006Z,22.3
2022-12-03T12:21:30.254Z,22.3
2022-12-03T12:22:46.486Z,22
2022-12-03T12:24:02.734Z,22.4
2022-12-03T12:25:18.976Z,22.5
2022-12-03T12:26:35.215Z,22.9
2022-12-03T12:27:51.460Z,23.1
2022-12-03T12:29:07.703Z,23.3
2022-12-03T12:30:23.943Z,24
2022-12-03T12:31:40.168Z,23.8
2022-12-03T12:32:56.418Z,24
2022-12-03T12:34:12.665Z,23
2022-12-03T12:35:27.918Z,23.6
2022-12-03T12:36:44.157Z,23.4
2022-12-03T12:39:16.633Z,23
2022-12-03T12:40:32.876Z,23.2
2022-12-03T12:41:49.129Z,23.3
2022-12-03T12:43:05.360Z,24.2
2022-12-03T12:44:21.601Z,23
2022-12-03T12:45:37.837Z,23.8
2022-12-03T12:46:54.091Z,24.6
2022-12-03T12:48:10.336Z,24.1
2022-12-03T12:49:26.568Z,24.2
2022-12-03T12:50:42.812Z,24.6
2022-12-03T12:51:58.074Z,25.5
2022-12-03T12:53:14.309Z,25.2
2022-12-03T12:54:30.536Z,25.5
2022-12-03T12:55:46.779Z,25.5
2022-12-03T12:57:03.031Z,26.1
2022-12-03T12:58:19.272Z,25.3
2022-12-03T12:59:35.505Z,26
2022-12-03T13:00:51.741Z,25.6
2022-12-03T13:02:07.989Z,25.7
2022-12-03T13:03:24.237Z,25.5
2022-12-03T13:04:40.478Z,25.7
2022-12-03T13:05:56.722Z,25.9
2022-12-03T13:07:12.962Z,26.6
2022-12-03T13:08:28.215Z,25.6
2022-12-03T13:09:44.456Z,25.5
2022-12-03T13:11:00.697Z,25.6
2022-12-03T13:12:16.931Z,25.7
2022-12-03T13:13:33.175Z,26.5
2022-12-03T13:14:49.408Z,26.6
2022-12-03T13:16:05.648Z,25.3
2022-12-03T13:17:21.905Z,24.6
2022-12-03T13:18:38.147Z,25.5
2022-12-03T13:19:54.380Z,25.6
2022-12-03T13:21:10.623Z,26.1
2022-12-03T13:23:43.096Z,25.3
2022-12-03T13:24:58.361Z,24.4
2022-12-03T13:26:14.595Z,24.6
2022-12-03T13:27:30.836Z,25.5
2022-12-03T13:28:47.083Z,25
2022-12-03T13:30:03.333Z,25.2
2022-12-03T13:31:19.573Z,25.1
2022-12-03T13:32:35.813Z,25.3
2022-12-03T13:33:52.040Z,24.9
2022-12-03T13:35:08.278Z,25.4
2022-12-03T13:36:24.525Z,24.6
2022-12-03T13:37:40.771Z,24.7
2022-12-03T13:38:57.007Z,25.8
2022-12-03T13:40:13.245Z,25.1
2022-12-03T13:41:28.512Z,26
2022-12-03T13:42:44.758Z,25.2
2022-12-03T13:44:00.999Z,26
2022-12-03T13:45:17.232Z,26.3
2022-12-03T13:46:33.473Z,25.4
2022-12-03T13:47:49.722Z,25.5
2022-12-03T13:49:05.957Z,25.3
2022-12-03T13:50:22.195Z,25.8
2022-12-03T13:51:38.433Z,25.6
2022-12-03T13:52:54.667Z,25.9
2022-12-03T13:54:10.908Z,25.5
2022-12-03T13:55:27.152Z,25
2022-12-03T13:56:43.396Z,26.2
2022-12-03T13:57:58.653Z,27.1
2022-12-03T13:59:14.887Z,25.9
2022-12-03T14:00:31.139Z,25.9
2022-12-03T14:01:47.374Z,26.4
2022-12-03T14:03:03.629Z,27.2
2022-12-03T14:04:19.864Z,26.3
2022-12-03T14:05:36.112Z,26.2
2022-12-03T14:06:52.346Z,27.6
2022-12-03T14:08:08.580Z,26.6
2022-12-03T14:09:24.821Z,27.3
2022-12-03T14:10:41.065Z,26.7
2022-12-03T14:11:57.306Z,26.9
2022-12-03T14:13:13.545Z,27.4
2022-12-03T14:14:29.781Z,27.9
2022-12-03T14:15:45.036Z,27
2022-12-03T14:17:01.285Z,28.3
2022-12-03T14:18:17.526Z,27.7
2022-12-03T14:19:33.778Z,26.4
2022-12-03T14:20:50.000Z,28.5
2022-12-03T14:22:06.241Z,27.4
2022-12-03T14:23:22.488Z,28
2022-12-03T14:24:38.735Z,28.4
2022-12-03T14:25:54.963Z,28.7
2022-12-03T14:27:11.208Z,27.6
2022-12-03T14:28:27.454Z,28.1
2022-12-03T14:29:43.705Z,29.2
2022-12-03T14:30:59.930Z,27.8
2022-12-03T14:33:32.417Z,29.3
2022-12-03T14:34:47.680Z,28.1
2022-12-03T14:36:03.923Z,29.5
2022-12-03T14:37:20.165Z,29.4
2022-12-03T14:38:36.389Z,28.5
2022-12-03T14:39:52.645Z,29
2022-12-03T14:41:08.876Z,27.9
2022-12-03T14:42:25.129Z,28.2
2022-12-03T14:43:41.361Z,30.4
2022-12-03T14:44:57.610Z,29
2022-12-03T14:46:13.839Z,29.9
2022-12-03T14:48:46.337Z,29
2022-12-03T14:50:02.570Z,28.6
2022-12-03T14:51:18.919Z,28.3
2022-12-03T14:52:35.164Z,29.3
2022-12-03T14:53:51.407Z,29.5
2022-12-03T14:55:07.647Z,29
2022-12-03T14:56:23.895Z,30.1
2022-12-03T14:57:40.140Z,29.3
2022-12-03T14:58:56.372Z,29.1
2022-12-03T15:00:12.625Z,29.6
2022-12-03T15:01:28.850Z,30.1
2022-12-03T15:04:01.335Z,28.7
2022-12-03T15:05:17.588Z,29.1
2022-12-03T15:06:33.829Z,30
2022-12-03T15:07:50.191Z,30.2
2022-12-03T15:09:06.423Z,30
2022-12-03T15:10:22.665Z,30.2
2022-12-03T15:11:38.899Z,30.1
2022-12-03T15:12:55.147Z,30
2022-12-03T15:14:11.382Z,30.3
2022-12-03T15:15:27.626Z,30.6
2022-12-03T15:16:43.863Z,30.1
2022-12-03T15:18:00.115Z,30
2022-12-03T15:19:16.358Z,30.3
2022-12-03T15:20:31.610Z,30.8
2022-12-03T15:21:47.865Z,31.6
2022-12-03T15:23:04.104Z,30.2
2022-12-03T15:24:20.345Z,30.7
2022-12-03T15:25:36.575Z,31
2022-12-03T15:26:52.829Z,30.3
2022-12-03T15:28:09.075Z,31.2
2022-12-03T15:29:25.312Z,30.6
2022-12-03T15:31:57.862Z,29.5
2022-12-03T15:33:14.103Z,30.4
2022-12-03T15:34:30.339Z,29.6
2022-12-03T15:35:46.639Z,30.8
2022-12-03T15:37:01.943Z,31.3
2022-12-03T15:38:18.232Z,30.7
2022-12-03T15:39:34.547Z,29.2
2022-12-03T15:40:50.825Z,29.1
2022-12-03T15:42:07.000Z,30
2022-12-03T15:43:23.000Z,31.3
2022-12-03T15:44:39.709Z,29.4
2022-12-03T15:45:56.004Z,30.7
2022-12-03T15:47:12.301Z,30.8
2022-12-03T15:48:28.611Z,30
2022-12-03T15:49:44.897Z,30.8
2022-12-03T15:52:17.484Z,31.7
2022-12-03T15:53:32.790Z,30.9
2022-12-03T15:54:49.089Z,31.1
2022-12-03T15:56:05.388Z,31.9
2022-12-03T15:57:21.672Z,30.7
2022-12-03T15:58:37.976Z,30.2
2022-12-03T15:59:54.274Z,29.5
2022-12-03T16:01:10.568Z,30.6
2022-12-03T16:02:26.870Z,31.2
2022-12-03T16:03:43.149Z,31.1
2022-12-03T16:04:59.447Z,30
2022-12-03T16:06:15.739Z,31
2022-12-03T16:07:32.046Z,30.1
2022-12-03T16:08:48.328Z,30.8
2022-12-03T16:10:03.636Z,31.1
2022-12-03T16:11:19.932Z,30.9
2022-12-03T16:12:36.234Z,30.3
2022-12-03T16:13:52.539Z,31.4
2022-12-03T16:15:08.823Z,30.8
2022-12-03T16:16:25.111Z,30.4
2022-12-03T16:17:41.413Z,30.5
2022-12-03T16:20:13.997Z,30.3
2022-12-03T16:21:30.309Z,31
2022-12-03T16:22:46.592Z,31.3
2022-12-03T16:24:02.886Z,30.1
2022-12-03T16:25:19.178Z,31.9
2022-12-03T16:26:35.596Z,31
2022-12-03T16:27:50.919Z,31.5
2022-12-03T16:29:07.212Z,30.8
2022-12-03T16:30:23.510Z,32
2022-12-03T16:31:39.798Z,33.2
2022-12-03T16:32:56.085Z,31.8
2022-12-03T16:35:28.672Z,31
2022-12-03T16:36:44.966Z,31.6
2022-12-03T16:38:01.269Z,32.4
2022-12-03T16:39:17.563Z,32.7
2022-12-03T16:40:33.856Z,31.5
2022-12-03T16:41:50.158Z,32
2022-12-03T16:43:06.454Z,32.3
2022-12-03T16:44:21.762Z,31.7
2022-12-03T16:45:38.048Z,32.6
2022-12-03T16:46:54.343Z,31.7
2022-12-03T16:48:10.654Z,32
2022-12-03T16:50:43.230Z,31.9
2022-12-03T16:51:59.524Z,32.3
2022-12-03T16:53:15.825Z,31.9
2022-12-03T16:54:32.115Z,31
2022-12-03T16:55:48.421Z,32.2
2022-12-03T16:57:04.704Z,31.9
2022-12-03T16:58:21.007Z,31.5
2022-12-03T16:59:37.313Z,31.8
2022-12-03T17:00:52.605Z,31.8
2022-12-03T17:02:08.905Z,31.1
2022-12-03T17:03:25.204Z,31.2
2022-12-03T17:04:41.489Z,30.6
2022-12-03T17:05:57.798Z,31.1
2022-12-03T17:07:14.085Z,30.2
2022-12-03T17:08:30.384Z,30.6
2022-12-03T17:09:46.674Z,30.4
2022-12-03T17:11:02.978Z,31.7
2022-12-03T17:12:19.270Z,29.4
2022-12-03T17:13:35.554Z,30
2022-12-03T17:14:51.856Z,28.6
2022-12-03T17:16:08.150Z,29.2
2022-12-03T17:17:23.454Z,29.9
2022-12-03T17:18:39.768Z,28.6
2022-12-03T17:19:56.061Z,29.6
2022-12-03T17:21:12.348Z,28.8
2022-12-03T17:22:28.647Z,29.8
2022-12-03T17:23:44.943Z,28.1
2022-12-03T17:25:01.242Z,29.2
2022-12-03T17:26:17.530Z,29.4
2022-12-03T17:27:33.823Z,28.5
2022-12-03T17:28:50.108Z,29.8
2022-12-03T17:30:06.418Z,29
2022-12-03T17:31:22.704Z,28.6
2022-12-03T17:32:39.013Z,28.6
2022-12-03T17:33:54.316Z,28.9
2022-12-03T17:35:10.611Z,29
2022-12-03T17:36:26.900Z,29.5
2022-12-03T17:37:43.209Z,29.2
2022-12-03T17:38:59.497Z,30.3
2022-12-03T17:40:15.794Z,28.8
2022-12-03T17:41:32.076Z,29.2
2022-12-03T17:42:48.370Z,29.7
2022-12-03T17:44:04.663Z,29.8
2022-12-03T17:45:20.972Z,29.8